首页
METAR-TAF:

METAR-TAF

机场 :

新潟機場

新潟, 日本

纬度: 37-57N, 经度: 139-07E, 海拔: 1米

当前天气观测

该预报发布于1小时和11分钟前的01:00 UTC
风速7节,风向西北
温度 34°C
湿度 50%
气压 1012 hPa
能见度10公里或以上
少量云层高于3000英尺
散云层高于15000英尺

METAR: RJSN 220100Z 32007KT 9999 FEW030 SCT150 34/22 Q1012

时间: 11:11 (02:11 UTC)

预报

该预报发布于3小时和3分钟前的23:08 UTC
预报有效从22日的 00点(UTC)到 23日的 06点(UTC)
风速6节,风向
能见度10公里或以上
少量云层高于3000英尺
成为
从 22日的 03点(UTC)到 22日的 05点(UTC)
风速10节,风向北转东北
成为
从 22日的 12点(UTC)到 22日的 15点(UTC)
风速6节,风向

TAF: RJSN 212308Z 2200/2306 19006KT 9999 FEW030 BECMG 2203/2205 02010KT BECMG 2212/2215 17006KT

超过4000个机场的气象观测和天气预报(METAR&TAF报告)。

可查询的气象台以黄色和红色小点在地图上表示。

将鼠标移到小点上方,可查看气象台名称。

然后点击查看天气观测和预报。

如需切换地图:点击带黑十字的绿色按钮放大地图;点击带横线的绿色按钮缩小地图;或者点击绿色箭头查看邻近地区的地图。


METAR-TAF: